createdAt,value
2022-11-05T00:05:58.320Z,96.84
2022-11-05T00:15:58.360Z,94.93
2022-11-05T00:25:58.668Z,96.02
2022-11-05T00:35:58.685Z,94.99
2022-11-05T00:45:59.239Z,95.92
2022-11-05T00:55:59.083Z,95.50
2022-11-05T01:05:59.483Z,95.92
2022-11-05T01:15:59.499Z,95.14
2022-11-05T01:25:59.833Z,95.45
2022-11-05T01:35:59.844Z,95.86
2022-11-05T01:46:00.177Z,96.99
2022-11-05T01:56:00.208Z,96.99
2022-11-05T02:06:00.522Z,97.71
2022-11-05T02:16:00.553Z,97.30
2022-11-05T02:26:00.870Z,96.78
2022-11-05T02:36:03.077Z,96.27
2022-11-05T02:46:01.226Z,95.28
2022-11-05T02:56:01.263Z,96.52
2022-11-05T03:06:01.673Z,95.53
2022-11-05T03:16:01.701Z,95.90
2022-11-05T03:26:02.031Z,96.46
2022-11-05T03:36:02.106Z,96.97
2022-11-05T03:46:02.165Z,97.53
2022-11-05T03:56:02.398Z,97.28
2022-11-05T04:06:02.721Z,97.18
2022-11-05T04:16:02.741Z,97.24
2022-11-05T04:26:03.069Z,96.92
2022-11-05T04:36:03.086Z,96.71
2022-11-05T04:46:03.430Z,97.23
2022-11-05T04:56:03.451Z,97.39
2022-11-05T05:06:04.268Z,97.39
2022-11-05T05:16:03.739Z,97.39
2022-11-05T05:26:04.021Z,97.69
2022-11-05T05:36:09.958Z,97.96
2022-11-05T05:46:05.413Z,98.58
2022-11-05T05:56:04.545Z,98.62
2022-11-05T06:06:04.561Z,98.11
2022-11-05T06:16:04.903Z,97.74
2022-11-05T06:26:04.926Z,97.95
2022-11-05T06:36:05.257Z,97.48
2022-11-05T06:46:05.272Z,96.70
2022-11-05T06:56:05.601Z,97.02
2022-11-05T07:06:05.634Z,97.13
2022-11-05T07:16:05.940Z,96.71
2022-11-05T07:26:06.054Z,95.87
2022-11-05T07:36:06.270Z,93.98
2022-11-05T07:46:11.150Z,95.00
2022-11-05T07:56:07.560Z,93.83
2022-11-05T08:06:06.869Z,94.51
2022-11-05T08:16:06.899Z,95.33
2022-11-05T08:26:07.162Z,94.40
2022-11-05T08:36:07.384Z,94.20
2022-11-05T08:46:08.650Z,94.60
2022-11-05T08:56:07.883Z,92.96
2022-11-05T09:06:08.181Z,92.24
2022-11-05T09:16:08.209Z,93.33
2022-11-05T09:26:08.535Z,94.01
2022-11-05T09:36:08.555Z,93.08
2022-11-05T09:46:08.877Z,93.74
2022-11-05T09:56:08.907Z,93.64
2022-11-05T10:06:09.236Z,92.97
2022-11-05T10:16:09.266Z,91.97
2022-11-05T10:26:09.578Z,89.56
2022-11-05T10:36:09.603Z,87.88
2022-11-05T10:46:09.934Z,87.53
2022-11-05T10:56:10.081Z,88.98
2022-11-05T11:06:10.170Z,85.05
2022-11-05T11:16:10.187Z,79.96
2022-11-05T11:26:10.524Z,81.40
2022-11-05T11:36:10.548Z,85.46
2022-11-05T11:46:14.912Z,86.32
2022-11-05T11:56:10.971Z,82.46
2022-11-05T12:06:11.331Z,79.49
2022-11-05T12:16:11.374Z,81.20
2022-11-05T12:26:11.701Z,79.14
2022-11-05T12:36:11.739Z,79.45
2022-11-05T12:46:12.019Z,79.55
2022-11-05T12:56:12.050Z,83.07
2022-11-05T13:06:12.475Z,78.67
2022-11-05T13:16:12.649Z,88.17
2022-11-05T13:26:17.053Z,88.51
2022-11-05T13:36:14.091Z,89.54
2022-11-05T13:46:14.390Z,86.24
2022-11-05T13:56:13.290Z,83.56
2022-11-05T14:06:13.716Z,77.73
2022-11-05T14:16:13.705Z,77.19
2022-11-05T14:26:13.728Z,79.47
2022-11-05T14:36:14.056Z,79.37
2022-11-05T14:46:14.075Z,81.35
2022-11-05T14:56:14.396Z,87.55
2022-11-05T15:06:14.411Z,82.84
2022-11-05T15:16:14.748Z,79.00
2022-11-05T15:26:15.756Z,79.44
2022-11-05T15:36:16.603Z,83.78
2022-11-05T15:46:15.329Z,93.74
2022-11-05T15:56:15.243Z,87.45
2022-11-05T16:06:15.485Z,88.76
2022-11-05T16:16:16.015Z,88.90
2022-11-05T16:26:25.378Z,89.76
2022-11-05T16:36:17.067Z,88.68
2022-11-05T16:46:16.160Z,89.19
2022-11-05T16:56:16.416Z,89.81
2022-11-05T17:06:16.462Z,91.80
2022-11-05T17:16:16.500Z,91.08
2022-11-05T17:26:17.038Z,92.11
2022-11-05T17:36:17.164Z,92.73
2022-11-05T17:46:17.282Z,93.44
2022-11-05T17:56:27.214Z,92.93
2022-11-05T18:06:18.266Z,93.14
2022-11-05T18:16:17.814Z,92.63
2022-11-05T18:26:17.923Z,93.24
2022-11-05T18:36:18.149Z,94.87
2022-11-05T18:46:43.019Z,95.74
2022-11-05T18:56:19.330Z,94.34
2022-11-05T19:06:18.335Z,94.60
2022-11-05T19:16:19.174Z,94.80
2022-11-05T19:26:20.063Z,94.49
2022-11-05T19:36:18.623Z,94.90
2022-11-05T19:46:19.210Z,95.46
2022-11-05T19:56:19.357Z,95.15
2022-11-05T20:06:19.542Z,95.09
2022-11-05T20:16:20.306Z,94.62
2022-11-05T20:26:19.865Z,94.87
2022-11-05T20:36:19.990Z,95.95
2022-11-05T20:46:20.200Z,97.64
2022-11-05T20:56:20.286Z,98.31
2022-11-05T21:06:20.473Z,98.61
2022-11-05T21:16:20.603Z,98.82
2022-11-05T21:26:24.475Z,98.34
2022-11-05T21:36:23.706Z,98.75
2022-11-05T21:46:21.093Z,98.60
2022-11-05T21:56:21.015Z,98.24
2022-11-05T22:06:21.300Z,97.45
2022-11-05T22:16:21.319Z,97.26
2022-11-05T22:26:21.665Z,96.52
2022-11-05T22:36:21.705Z,96.02
2022-11-05T22:46:22.002Z,93.24
2022-11-05T22:56:22.031Z,91.90
2022-11-05T23:06:22.249Z,91.69
2022-11-05T23:16:22.276Z,93.23
2022-11-05T23:26:22.602Z,94.91
2022-11-05T23:36:22.622Z,96.26
2022-11-05T23:46:22.989Z,96.12
2022-11-05T23:56:23.007Z,93.54
